createdAt,value
2018-12-11T00:00:42.319Z,6.30
2018-12-11T00:03:10.367Z,7.23
2018-12-11T00:05:38.419Z,6.20
2018-12-11T00:08:07.293Z,6.27
2018-12-11T00:10:35.359Z,6.97
2018-12-11T00:13:03.452Z,5.70
2018-12-11T00:15:32.336Z,5.27
2018-12-11T00:18:00.368Z,6.03
2018-12-11T00:20:28.468Z,7.30
2018-12-11T00:22:56.835Z,7.00
2018-12-11T00:25:25.446Z,7.00
2018-12-11T00:27:53.888Z,7.13
2018-12-11T00:30:22.308Z,7.00
2018-12-11T00:32:50.345Z,6.37
2018-12-11T00:35:18.959Z,6.60
2018-12-11T00:37:47.840Z,6.87
2018-12-11T00:40:16.339Z,6.13
2018-12-11T00:42:44.381Z,6.20
2018-12-11T00:45:13.400Z,6.63
2018-12-11T00:47:42.144Z,6.47
2018-12-11T00:50:10.764Z,6.53
2018-12-11T00:52:39.675Z,6.07
2018-12-11T00:55:08.484Z,6.87
2018-12-11T00:57:36.564Z,6.03
2018-12-11T01:00:07.416Z,6.50
2018-12-11T01:02:35.492Z,6.10
2018-12-11T01:05:03.845Z,6.53
2018-12-11T01:07:32.926Z,4.93
2018-12-11T01:10:03.140Z,6.10
2018-12-11T01:12:31.292Z,6.10
2018-12-11T01:14:59.408Z,6.33
2018-12-11T01:17:27.487Z,6.10
2018-12-11T01:19:55.943Z,5.63
2018-12-11T01:22:24.000Z,4.93
2018-12-11T01:24:52.260Z,5.87
2018-12-11T01:27:20.788Z,6.57
2018-12-11T01:29:48.828Z,6.53
2018-12-11T01:32:17.879Z,5.87
2018-12-11T01:34:46.584Z,6.57
2018-12-11T01:37:14.655Z,5.33
2018-12-11T01:39:43.086Z,5.27
2018-12-11T01:42:11.159Z,5.33
2018-12-11T01:44:39.196Z,6.33
2018-12-11T01:47:07.680Z,5.33
2018-12-11T01:49:35.752Z,5.47
2018-12-11T01:52:04.183Z,5.60
2018-12-11T01:54:32.248Z,5.37
2018-12-11T01:57:01.000Z,5.73
2018-12-11T01:59:29.052Z,5.60
2018-12-11T02:01:57.621Z,5.83
2018-12-11T02:04:26.100Z,6.13
2018-12-11T02:06:54.467Z,6.07
2018-12-11T02:09:23.036Z,7.00
2018-12-11T02:11:51.545Z,7.30
2018-12-11T02:14:20.606Z,6.10
2018-12-11T02:16:49.104Z,5.40
2018-12-11T02:19:17.580Z,5.80
2018-12-11T02:21:46.496Z,6.33
2018-12-11T02:24:14.575Z,6.57
2018-12-11T02:26:41.786Z,5.70
2018-12-11T02:29:10.274Z,6.13
2018-12-11T02:31:39.086Z,6.00
2018-12-11T02:34:07.691Z,6.87
2018-12-11T02:36:36.333Z,5.40
2018-12-11T02:39:07.007Z,5.90
2018-12-11T02:41:35.439Z,6.63
2018-12-11T02:44:03.877Z,6.17
2018-12-11T02:46:32.399Z,5.73
2018-12-11T02:49:00.460Z,6.40
2018-12-11T02:51:28.814Z,5.97
2018-12-11T02:53:56.886Z,6.03
2018-12-11T02:56:24.932Z,6.40
2018-12-11T02:58:53.351Z,6.03
2018-12-11T03:01:21.435Z,5.80
2018-12-11T03:03:49.936Z,5.53
2018-12-11T03:06:18.832Z,5.60
2018-12-11T03:08:47.163Z,6.23
2018-12-11T03:11:15.477Z,6.00
2018-12-11T03:13:44.323Z,5.90
2018-12-11T03:16:12.816Z,6.40
2018-12-11T03:18:40.894Z,6.20
2018-12-11T03:21:09.896Z,5.30
2018-12-11T03:23:37.945Z,6.37
2018-12-11T03:26:06.023Z,5.40
2018-12-11T03:28:34.428Z,5.87
2018-12-11T03:31:02.472Z,6.13
2018-12-11T03:33:30.922Z,5.80
2018-12-11T03:35:59.331Z,5.17
2018-12-11T03:38:27.447Z,6.53
2018-12-11T03:40:55.503Z,5.80
2018-12-11T03:43:24.404Z,5.47
2018-12-11T03:45:52.468Z,5.13
2018-12-11T03:48:21.120Z,6.00
2018-12-11T03:50:49.764Z,5.83
2018-12-11T03:53:18.283Z,5.57
2018-12-11T03:55:46.685Z,5.00
2018-12-11T03:58:14.783Z,5.13
2018-12-11T04:00:42.841Z,5.63
2018-12-11T04:03:11.323Z,5.73
2018-12-11T04:05:39.384Z,5.70
2018-12-11T04:08:07.435Z,5.67
2018-12-11T04:10:35.777Z,4.67
2018-12-11T04:13:04.230Z,5.10
2018-12-11T04:15:33.041Z,5.97
2018-12-11T04:18:01.647Z,5.03
2018-12-11T04:20:29.796Z,4.93
2018-12-11T04:22:57.860Z,4.83
2018-12-11T04:25:26.279Z,4.50
2018-12-11T04:27:54.349Z,5.93
2018-12-11T04:30:22.462Z,4.63
2018-12-11T04:32:50.683Z,5.30
2018-12-11T04:35:19.584Z,4.87
2018-12-11T04:37:47.732Z,5.53
2018-12-11T04:40:15.862Z,5.00
2018-12-11T04:42:43.972Z,4.90
2018-12-11T04:45:12.099Z,4.80
2018-12-11T04:47:40.800Z,5.27
2018-12-11T04:50:08.887Z,5.70
2018-12-11T04:52:36.970Z,5.90
2018-12-11T04:55:06.566Z,4.77
2018-12-11T04:58:14.156Z,4.90
2018-12-11T05:00:42.897Z,4.53
2018-12-11T05:03:19.143Z,5.53
2018-12-11T05:05:49.856Z,4.53
2018-12-11T05:08:18.938Z,4.80
2018-12-11T05:10:47.001Z,5.40
2018-12-11T05:13:16.046Z,4.50
2018-12-11T05:15:44.847Z,5.13
2018-12-11T05:18:12.942Z,4.70
2018-12-11T05:20:41.969Z,4.90
2018-12-11T05:23:11.948Z,5.27
2018-12-11T05:25:40.020Z,5.30
2018-12-11T05:28:08.192Z,4.93
2018-12-11T05:30:37.982Z,4.63
2018-12-11T05:33:06.028Z,4.63
2018-12-11T05:35:34.067Z,4.63
2018-12-11T05:38:02.656Z,4.77
2018-12-11T05:40:30.710Z,4.73
2018-12-11T05:42:59.236Z,5.00
2018-12-11T05:45:27.344Z,4.27
2018-12-11T05:47:55.467Z,3.70
2018-12-11T05:50:23.893Z,4.97
2018-12-11T05:52:52.060Z,3.90
2018-12-11T05:55:20.113Z,4.57
2018-12-11T05:57:49.235Z,3.57
2018-12-11T06:00:17.363Z,5.17
2018-12-11T06:02:45.431Z,3.50
2018-12-11T06:05:13.927Z,4.43
2018-12-11T06:07:42.479Z,5.97
2018-12-11T06:10:10.951Z,4.07
2018-12-11T06:12:39.036Z,4.43
2018-12-11T06:15:07.311Z,3.97
2018-12-11T06:17:35.791Z,3.50
2018-12-11T06:20:04.532Z,4.40
2018-12-11T06:22:32.607Z,3.63
2018-12-11T06:25:01.038Z,4.30
2018-12-11T06:27:29.104Z,3.93
2018-12-11T06:29:57.168Z,3.53
2018-12-11T06:32:25.631Z,3.77
2018-12-11T06:34:53.675Z,3.90
2018-12-11T06:37:22.195Z,3.50
2018-12-11T06:39:50.647Z,5.30
2018-12-11T06:42:19.297Z,3.70
2018-12-11T06:44:47.833Z,4.50
2018-12-11T06:47:15.928Z,4.27
2018-12-11T06:49:43.980Z,4.23
2018-12-11T06:52:12.056Z,3.90
2018-12-11T06:54:40.119Z,3.87
2018-12-11T06:57:09.030Z,4.83
2018-12-11T06:59:37.120Z,3.60
2018-12-11T07:02:05.175Z,3.43
2018-12-11T07:04:33.751Z,3.57
2018-12-11T07:07:01.860Z,3.33
2018-12-11T07:09:30.597Z,4.03
2018-12-11T07:11:58.680Z,3.40
2018-12-11T07:14:26.735Z,2.90
2018-12-11T07:16:55.768Z,3.40
2018-12-11T07:19:23.832Z,3.70
2018-12-11T07:21:51.884Z,3.53
2018-12-11T07:24:20.432Z,3.30
2018-12-11T07:26:51.008Z,2.90
2018-12-11T07:29:20.735Z,3.23
2018-12-11T07:32:02.737Z,3.13
2018-12-11T07:34:31.392Z,3.30
2018-12-11T07:39:30.839Z,3.40
2018-12-11T07:41:58.939Z,3.20
2018-12-11T07:44:30.591Z,3.17
2018-12-11T07:46:59.384Z,3.13
2018-12-11T07:49:27.447Z,3.77
2018-12-11T07:51:56.600Z,2.80
2018-12-11T07:54:25.040Z,3.33
2018-12-11T07:56:53.152Z,3.97
2018-12-11T07:59:21.243Z,3.00
2018-12-11T08:01:49.295Z,3.37
2018-12-11T08:04:20.104Z,3.37
2018-12-11T08:06:48.493Z,3.57
2018-12-11T08:09:18.008Z,3.27
2018-12-11T08:11:46.087Z,3.17
2018-12-11T08:14:14.131Z,3.87
2018-12-11T08:16:42.229Z,3.37
2018-12-11T08:19:10.554Z,3.10
2018-12-11T08:21:38.719Z,4.03
2018-12-11T08:24:14.966Z,3.37
2018-12-11T08:26:43.907Z,3.13
2018-12-11T08:29:11.999Z,3.63
2018-12-11T08:31:40.043Z,3.17
2018-12-11T08:34:08.563Z,3.03
2018-12-11T08:36:36.777Z,2.90
2018-12-11T08:39:06.547Z,3.03
2018-12-11T08:41:34.588Z,2.63
2018-12-11T08:44:02.676Z,2.60
2018-12-11T08:46:30.724Z,2.47
2018-12-11T08:48:58.820Z,2.70
2018-12-11T08:51:26.892Z,2.97
2018-12-11T08:53:54.944Z,2.67
2018-12-11T08:56:23.336Z,2.60
2018-12-11T08:58:51.416Z,3.00
2018-12-11T09:01:20.049Z,2.97
2018-12-11T09:03:48.385Z,2.57
2018-12-11T09:06:16.436Z,2.70
2018-12-11T09:08:45.868Z,2.67
2018-12-11T09:11:13.991Z,3.00
2018-12-11T09:13:42.063Z,2.77
2018-12-11T09:16:13.316Z,2.50
2018-12-11T09:18:41.396Z,2.67
2018-12-11T09:21:09.791Z,2.73
2018-12-11T09:23:37.823Z,2.53
2018-12-11T09:26:05.893Z,2.53
2018-12-11T09:28:34.456Z,2.40
2018-12-11T09:31:02.496Z,2.23
2018-12-11T09:33:30.543Z,2.57
2018-12-11T09:35:58.615Z,2.47
2018-12-11T09:38:26.652Z,2.73
2018-12-11T09:40:54.984Z,2.43
2018-12-11T09:43:23.300Z,2.80
2018-12-11T09:45:51.335Z,2.40
2018-12-11T09:48:19.407Z,2.40
2018-12-11T09:50:47.456Z,2.40
2018-12-11T09:53:15.839Z,2.63
2018-12-11T09:55:43.895Z,2.83
2018-12-11T09:58:11.956Z,2.60
2018-12-11T10:00:40.057Z,2.40
2018-12-11T10:03:08.227Z,2.50
2018-12-11T10:05:36.304Z,2.63
2018-12-11T10:08:04.391Z,2.63
2018-12-11T10:10:32.447Z,2.57
2018-12-11T10:13:01.001Z,2.37
2018-12-11T10:15:29.068Z,2.60
2018-12-11T10:17:57.599Z,2.53
2018-12-11T10:20:26.084Z,2.37
2018-12-11T10:22:54.849Z,2.47
2018-12-11T10:25:23.249Z,2.13
2018-12-11T10:27:51.287Z,2.30
2018-12-11T10:30:19.744Z,2.57
2018-12-11T10:32:50.776Z,2.20
2018-12-11T10:35:18.857Z,2.30
2018-12-11T10:37:46.916Z,2.03
2018-12-11T10:40:15.245Z,2.17
2018-12-11T10:42:43.479Z,2.37
2018-12-11T10:45:11.876Z,2.77
2018-12-11T10:47:39.911Z,2.10
2018-12-11T10:50:08.372Z,2.43
2018-12-11T10:52:36.423Z,2.43
2018-12-11T10:55:04.519Z,2.23
2018-12-11T10:57:32.877Z,1.90
2018-12-11T11:00:00.920Z,2.27
2018-12-11T11:02:28.996Z,2.27
2018-12-11T11:04:57.034Z,2.00
2018-12-11T11:07:25.071Z,2.10
2018-12-11T11:09:53.131Z,2.00
2018-12-11T11:12:21.840Z,2.07
2018-12-11T11:14:49.984Z,2.00
2018-12-11T11:17:18.099Z,1.87
2018-12-11T11:19:46.148Z,2.30
2018-12-11T11:22:14.224Z,2.00
2018-12-11T11:24:42.308Z,1.80
2018-12-11T11:27:11.141Z,2.00
2018-12-11T11:29:39.260Z,1.83
2018-12-11T11:32:07.349Z,2.33
2018-12-11T11:34:42.208Z,2.13
2018-12-11T11:37:10.270Z,2.07
2018-12-11T11:39:38.672Z,2.00
2018-12-11T11:42:06.723Z,2.20
2018-12-11T11:44:35.059Z,1.90
2018-12-11T11:47:03.387Z,2.00
2018-12-11T11:49:31.420Z,2.10
2018-12-11T11:51:59.715Z,1.90
2018-12-11T11:54:27.764Z,2.17
2018-12-11T11:56:55.832Z,2.37
2018-12-11T11:59:24.351Z,2.37
2018-12-11T12:01:52.507Z,2.13
2018-12-11T12:04:20.547Z,2.23
2018-12-11T12:06:48.619Z,2.27
2018-12-11T12:09:16.668Z,2.57
2018-12-11T12:11:45.121Z,2.40
2018-12-11T12:14:13.196Z,2.17
2018-12-11T12:16:41.247Z,2.33
2018-12-11T12:19:09.314Z,2.60
2018-12-11T12:21:37.396Z,2.33
2018-12-11T12:24:05.435Z,2.27
2018-12-11T12:26:33.532Z,2.53
2018-12-11T12:29:01.597Z,2.33
2018-12-11T12:31:30.624Z,2.30
2018-12-11T12:33:58.737Z,3.03
2018-12-11T12:36:26.796Z,2.70
2018-12-11T12:38:54.852Z,4.77
2018-12-11T12:41:22.887Z,3.10
2018-12-11T12:43:51.269Z,2.40
2018-12-11T12:46:19.336Z,2.80
2018-12-11T12:48:47.377Z,2.80
2018-12-11T12:51:15.425Z,2.70
2018-12-11T12:53:43.532Z,2.53
2018-12-11T12:56:11.580Z,2.40
2018-12-11T12:58:39.645Z,2.67
2018-12-11T13:01:07.713Z,2.50
2018-12-11T13:03:36.513Z,2.20
2018-12-11T13:06:04.876Z,2.20
2018-12-11T13:08:32.928Z,2.20
2018-12-11T13:11:00.995Z,2.53
2018-12-11T13:13:29.314Z,2.40
2018-12-11T13:15:57.839Z,2.77
2018-12-11T13:18:25.880Z,2.57
2018-12-11T13:20:53.939Z,2.53
2018-12-11T13:23:21.996Z,2.30
2018-12-11T13:25:50.057Z,2.50
2018-12-11T13:28:18.136Z,2.57
2018-12-11T13:30:46.685Z,2.70
2018-12-11T13:33:15.129Z,2.90
2018-12-11T13:35:43.720Z,2.77
2018-12-11T13:38:11.787Z,2.90
2018-12-11T13:40:40.081Z,3.13
2018-12-11T13:43:08.215Z,2.80
2018-12-11T13:45:36.253Z,3.03
2018-12-11T13:48:04.824Z,3.13
2018-12-11T13:50:32.947Z,2.90
2018-12-11T13:53:00.993Z,2.73
2018-12-11T13:55:29.026Z,3.33
2018-12-11T13:57:57.088Z,2.90
2018-12-11T14:00:25.425Z,2.93
2018-12-11T14:02:53.566Z,2.60
2018-12-11T14:05:22.048Z,3.27
2018-12-11T14:07:50.459Z,3.10
2018-12-11T14:10:18.547Z,3.10
2018-12-11T14:12:46.615Z,2.80
2018-12-11T14:15:15.208Z,3.13
2018-12-11T14:17:43.328Z,3.33
2018-12-11T14:20:11.775Z,3.17
2018-12-11T14:22:40.263Z,3.00
2018-12-11T14:25:08.530Z,2.93
2018-12-11T14:27:36.671Z,2.87
2018-12-11T14:30:11.003Z,3.50
2018-12-11T14:32:36.772Z,3.50
2018-12-11T14:35:05.032Z,2.80
2018-12-11T14:37:33.805Z,2.83
2018-12-11T14:40:01.871Z,2.97
2018-12-11T14:42:29.939Z,2.90
2018-12-11T14:44:57.984Z,3.10
2018-12-11T14:47:26.036Z,3.10
2018-12-11T14:49:54.106Z,3.20
2018-12-11T14:52:22.195Z,3.10
2018-12-11T14:54:50.260Z,3.20
2018-12-11T14:57:18.751Z,4.07
2018-12-11T14:59:46.831Z,3.80
2018-12-11T15:02:15.530Z,3.00
2018-12-11T15:04:43.571Z,3.30
2018-12-11T15:07:11.607Z,3.33
2018-12-11T15:09:40.839Z,3.50
2018-12-11T15:12:08.936Z,3.40
2018-12-11T15:14:37.365Z,3.80
2018-12-11T15:17:05.414Z,3.73
2018-12-11T15:19:33.477Z,3.60
2018-12-11T15:22:01.529Z,3.33
2018-12-11T15:24:29.611Z,3.20
2018-12-11T15:26:57.683Z,3.20
2018-12-11T15:29:25.711Z,3.23
2018-12-11T15:31:53.795Z,3.40
2018-12-11T15:34:22.170Z,3.60
2018-12-11T15:36:50.210Z,3.77
2018-12-11T15:39:18.301Z,3.50
2018-12-11T15:41:46.351Z,3.40
2018-12-11T15:44:14.430Z,3.70
2018-12-11T15:46:45.843Z,3.57
2018-12-11T15:49:14.802Z,4.03
2018-12-11T15:51:43.264Z,3.80
2018-12-11T15:54:12.362Z,4.03
2018-12-11T15:56:40.891Z,3.90
2018-12-11T15:59:09.537Z,4.30
2018-12-11T16:01:37.631Z,3.60
2018-12-11T16:04:05.798Z,3.37
2018-12-11T16:06:34.990Z,3.90
2018-12-11T16:09:06.979Z,3.77
2018-12-11T16:11:35.039Z,4.07
2018-12-11T16:14:03.100Z,3.83
2018-12-11T16:16:31.141Z,3.77
2018-12-11T16:18:59.185Z,3.93
2018-12-11T16:21:27.219Z,4.13
2018-12-11T16:23:55.253Z,3.60
2018-12-11T16:26:23.578Z,4.23
2018-12-11T16:28:51.642Z,4.03
2018-12-11T16:31:19.696Z,4.40
2018-12-11T16:33:49.266Z,3.83
2018-12-11T16:36:17.636Z,4.20
2018-12-11T16:38:46.170Z,4.50
2018-12-11T16:41:14.232Z,4.37
2018-12-11T16:43:42.319Z,4.40
2018-12-11T16:46:11.034Z,3.57
2018-12-11T16:48:39.613Z,3.80
2018-12-11T16:51:08.329Z,3.90
2018-12-11T16:53:36.476Z,4.30
2018-12-11T16:56:04.988Z,3.90
2018-12-11T16:58:33.477Z,4.10
2018-12-11T17:01:01.544Z,4.00
2018-12-11T17:03:29.744Z,4.03
2018-12-11T17:05:57.804Z,3.83
2018-12-11T17:08:25.904Z,3.67
2018-12-11T17:10:54.363Z,3.67
2018-12-11T17:13:22.430Z,3.77
2018-12-11T17:15:50.748Z,3.63
2018-12-11T17:18:18.828Z,3.77
2018-12-11T17:20:47.364Z,4.00
2018-12-11T17:23:15.412Z,3.80
2018-12-11T17:25:44.795Z,4.07
2018-12-11T17:28:13.115Z,3.87
2018-12-11T17:30:41.572Z,3.93
2018-12-11T17:33:10.106Z,3.23
2018-12-11T17:35:38.732Z,3.57
2018-12-11T17:38:06.758Z,3.40
2018-12-11T17:40:35.104Z,3.40
2018-12-11T17:43:03.163Z,3.50
2018-12-11T17:45:33.568Z,3.40
2018-12-11T17:48:10.629Z,3.70
2018-12-11T17:50:40.211Z,3.37
2018-12-11T17:53:08.548Z,3.80
2018-12-11T17:55:37.107Z,3.33
2018-12-11T17:58:05.164Z,3.83
2018-12-11T18:00:33.801Z,3.80
2018-12-11T18:03:04.657Z,3.90
2018-12-11T18:05:34.371Z,3.73
2018-12-11T18:08:02.560Z,4.17
2018-12-11T18:10:31.064Z,3.87
2018-12-11T18:12:59.407Z,3.83
2018-12-11T18:15:27.554Z,4.00
2018-12-11T18:17:55.640Z,4.20
2018-12-11T18:20:23.695Z,3.50
2018-12-11T18:22:51.817Z,4.17
2018-12-11T18:25:20.207Z,3.63
2018-12-11T18:27:48.261Z,3.07
2018-12-11T18:30:16.393Z,3.53
2018-12-11T18:32:44.910Z,3.40
2018-12-11T18:35:13.674Z,3.20
2018-12-11T18:37:42.050Z,3.53
2018-12-11T18:40:10.556Z,3.60
2018-12-11T18:42:38.608Z,3.20
2018-12-11T18:45:09.313Z,3.17
2018-12-11T18:47:38.352Z,3.43
2018-12-11T18:50:07.481Z,3.60
2018-12-11T18:52:35.559Z,3.20
2018-12-11T18:55:04.377Z,3.70
2018-12-11T18:57:32.758Z,3.97
2018-12-11T19:00:02.253Z,3.60
2018-12-11T19:02:32.145Z,4.13
2018-12-11T19:05:01.533Z,3.93
2018-12-11T19:07:31.186Z,3.73
2018-12-11T19:10:00.809Z,3.93
2018-12-11T19:12:29.809Z,4.00
2018-12-11T19:15:04.584Z,3.93
2018-12-11T19:17:30.785Z,3.87
2018-12-11T19:19:59.318Z,4.30
2018-12-11T19:22:29.055Z,3.90
2018-12-11T19:25:01.660Z,4.03
2018-12-11T19:27:31.060Z,4.30
2018-12-11T19:29:59.567Z,4.13
2018-12-11T19:32:27.633Z,4.43
2018-12-11T19:34:58.545Z,4.57
2018-12-11T19:37:26.744Z,4.27
2018-12-11T19:40:01.928Z,4.87
2018-12-11T19:42:26.056Z,4.27
2018-12-11T19:44:54.173Z,3.87
2018-12-11T19:47:22.606Z,3.90
2018-12-11T19:49:50.923Z,4.00
2018-12-11T19:52:18.976Z,3.67
2018-12-11T19:54:47.031Z,4.30
2018-12-11T19:57:15.098Z,3.73
2018-12-11T19:59:43.635Z,4.00
2018-12-11T20:02:13.165Z,3.90
2018-12-11T20:04:41.307Z,3.93
2018-12-11T20:07:09.447Z,4.20
2018-12-11T20:09:39.621Z,4.40
2018-12-11T20:12:07.685Z,4.20
2018-12-11T20:14:35.894Z,4.20
2018-12-11T20:17:04.643Z,3.93
2018-12-11T20:19:33.182Z,3.80
2018-12-11T20:22:02.556Z,3.80
2018-12-11T20:24:30.616Z,4.20
2018-12-11T20:26:58.720Z,4.10
2018-12-11T20:29:27.128Z,4.07
2018-12-11T20:31:55.195Z,4.10
2018-12-11T20:34:23.699Z,4.00
2018-12-11T20:36:52.382Z,4.37
2018-12-11T20:39:20.458Z,4.90
2018-12-11T20:41:48.949Z,4.13
2018-12-11T20:44:17.026Z,4.50
2018-12-11T20:46:45.085Z,4.30
2018-12-11T20:49:13.191Z,5.03
2018-12-11T20:51:41.267Z,5.20
2018-12-11T20:54:09.326Z,4.67
2018-12-11T20:56:37.380Z,5.03
2018-12-11T20:59:05.968Z,4.70
2018-12-11T21:01:34.052Z,5.30
2018-12-11T21:04:02.166Z,5.10
2018-12-11T21:06:30.204Z,5.30
2018-12-11T21:09:00.161Z,5.87
2018-12-11T21:11:28.894Z,5.37
2018-12-11T21:13:57.050Z,5.93
2018-12-11T21:16:25.130Z,5.77
2018-12-11T21:18:59.148Z,6.10
2018-12-11T21:21:27.593Z,6.63
2018-12-11T21:23:56.247Z,5.83
2018-12-11T21:26:24.696Z,5.50
2018-12-11T21:28:52.772Z,5.93
2018-12-11T21:31:20.860Z,6.87
2018-12-11T21:33:48.927Z,6.90
2018-12-11T21:36:16.988Z,6.30
2018-12-11T21:38:45.055Z,6.70
2018-12-11T21:41:13.620Z,6.53
2018-12-11T21:43:42.051Z,6.30
2018-12-11T21:46:11.471Z,6.93
2018-12-11T21:48:39.554Z,7.27
2018-12-11T21:51:08.305Z,7.27
2018-12-11T21:53:37.170Z,7.23
2018-12-11T21:56:05.535Z,7.60
2018-12-11T21:58:34.336Z,8.30
2018-12-11T22:01:02.884Z,7.40
2018-12-11T22:03:31.717Z,7.87
2018-12-11T22:06:01.056Z,7.53
2018-12-11T22:08:29.544Z,7.57
2018-12-11T22:10:57.583Z,7.17
2018-12-11T22:13:26.583Z,7.30
2018-12-11T22:15:54.612Z,8.23
2018-12-11T22:18:22.992Z,7.17
2018-12-11T22:20:51.214Z,7.80
2018-12-11T22:23:19.280Z,8.07
2018-12-11T22:25:47.860Z,7.93
2018-12-11T22:28:16.275Z,7.80
2018-12-11T22:30:44.649Z,8.30
2018-12-11T22:33:12.886Z,8.67
2018-12-11T22:35:41.206Z,8.33
2018-12-11T22:38:09.758Z,7.90
2018-12-11T22:40:37.795Z,7.33
2018-12-11T22:43:05.835Z,7.53
2018-12-11T22:45:33.895Z,6.90
2018-12-11T22:48:02.538Z,6.80
2018-12-11T22:50:30.604Z,6.93
2018-12-11T22:52:59.080Z,7.00
2018-12-11T22:55:27.159Z,7.43
2018-12-11T22:57:55.267Z,6.57
2018-12-11T23:00:23.444Z,7.10
2018-12-11T23:02:51.983Z,7.60
2018-12-11T23:05:20.123Z,7.70
2018-12-11T23:07:48.355Z,7.80
2018-12-11T23:10:16.828Z,7.97
2018-12-11T23:12:45.195Z,8.63
2018-12-11T23:15:13.379Z,8.27
2018-12-11T23:17:41.731Z,8.00
2018-12-11T23:20:10.384Z,8.00
2018-12-11T23:22:39.016Z,8.77
2018-12-11T23:25:07.376Z,9.57
2018-12-11T23:27:35.988Z,8.73
2018-12-11T23:30:05.271Z,9.33
2018-12-11T23:32:33.660Z,10.70
2018-12-11T23:35:02.304Z,9.77
2018-12-11T23:37:30.813Z,10.50
2018-12-11T23:39:59.182Z,10.07
2018-12-11T23:42:27.766Z,10.50
2018-12-11T23:44:56.279Z,10.27
2018-12-11T23:47:24.643Z,10.53
2018-12-11T23:49:53.151Z,10.30
2018-12-11T23:52:21.221Z,9.70
2018-12-11T23:54:49.759Z,9.53
2018-12-11T23:57:17.796Z,9.13
2018-12-11T23:59:46.336Z,9.03
